Time;durP1;ratioP1;P1;durP2;ratioP2;P2;SDS_P1;SDS_P2;PMS_P1;PMS_P2;Temp;Humidity;BMP_temperature;BMP_pressure;BME280_temperature;BME280_humidity;BME280_pressure;Samples;Min_cycle;Max_cycle;Signal;HPM_P1;HPM_P2
2021/01/09 00:01:27;;;;;;;16.50;9.13;;;1.20;79.70;;;1.49;68.75;97739.75;5102866;28;20044;-40
2021/01/09 00:03:54;;;;;;;20.33;9.77;;;1.20;79.40;;;1.51;69.20;97735.25;5084616;28;20358;-40
2021/01/09 00:06:21;;;;;;;17.00;8.93;;;1.20;79.60;;;1.53;68.43;97735.97;5102778;28;20048;-40
2021/01/09 00:08:49;;;;;;;13.30;8.50;;;1.20;79.40;;;1.54;68.62;97738.50;5084773;28;20048;-41
2021/01/09 00:11:16;;;;;;;18.93;9.63;;;1.20;79.40;;;1.55;68.76;97734.97;5102384;28;20255;-40
2021/01/09 00:13:43;;;;;;;13.97;9.00;;;1.20;79.50;;;1.55;68.71;97732.34;5103090;28;20351;-40
2021/01/09 00:16:11;;;;;;;15.67;8.87;;;1.20;79.40;;;1.55;68.46;97736.72;5101681;28;20361;-40
2021/01/09 00:18:39;;;;;;;14.90;8.57;;;1.20;79.30;;;1.56;68.46;97741.03;5102953;28;20046;-40
2021/01/09 00:21:06;;;;;;;17.23;9.80;;;1.20;79.30;;;1.56;68.37;97739.25;5102397;28;20040;-40
2021/01/09 00:23:33;;;;;;;18.17;9.43;;;1.20;79.30;;;1.55;68.64;97736.72;5102358;28;20229;-40
2021/01/09 00:26:02;;;;;;;15.57;9.00;;;1.20;79.40;;;1.53;68.93;97731.59;5102420;28;20040;-40
2021/01/09 00:28:29;;;;;;;17.43;9.20;;;1.20;79.50;;;1.55;68.55;97729.72;5084881;28;20032;-40
2021/01/09 00:30:56;;;;;;;16.57;10.27;;;1.20;79.30;;;1.57;68.37;97735.69;5102342;28;20062;-40
2021/01/09 00:33:24;;;;;;;20.27;10.33;;;1.20;79.40;;;1.56;68.32;97736.63;5102685;28;20056;-40
2021/01/09 00:35:53;;;;;;;14.80;8.90;;;1.20;79.50;;;1.57;68.98;97738.31;5102370;28;20346;-40
2021/01/09 00:38:20;;;;;;;17.17;10.23;;;1.20;79.40;;;1.56;68.74;97739.25;5102581;28;20073;-40
2021/01/09 00:40:48;;;;;;;17.37;9.00;;;1.20;79.20;;;1.57;68.37;97738.31;5102591;28;20050;-40
2021/01/09 00:43:17;;;;;;;20.00;10.30;;;1.20;79.50;;;1.57;68.58;97735.69;5102574;28;20346;-40
2021/01/09 00:45:44;;;;;;;18.60;9.70;;;1.20;79.70;;;1.56;68.71;97736.63;5101457;28;20070;-40
2021/01/09 00:48:11;;;;;;;16.50;9.43;;;1.20;80.50;;;1.57;68.81;97738.31;5102567;28;20048;-40
2021/01/09 00:50:39;;;;;;;18.37;10.43;;;1.20;79.50;;;1.53;68.17;97741.22;5102543;28;20286;-41
2021/01/09 00:53:06;;;;;;;16.50;9.17;;;1.10;79.90;;;1.51;68.26;97743.97;5102444;28;20048;-41
2021/01/09 00:55:33;;;;;;;15.43;8.90;;;1.10;79.90;;;1.54;68.41;97742.94;5100993;28;20059;-41
2021/01/09 00:58:02;;;;;;;15.47;9.10;;;1.10;80.00;;;1.55;68.77;97744.59;5101322;28;20048;-41
2021/01/09 01:00:29;;;;;;;18.07;10.40;;;1.20;79.60;;;1.54;68.85;97746.38;5100375;28;20046;-41
2021/01/09 01:02:57;;;;;;;18.30;10.70;;;1.20;79.60;;;1.56;68.73;97746.28;5100983;28;20058;-41
2021/01/09 01:05:24;;;;;;;20.80;11.00;;;1.20;79.80;;;1.56;68.80;97751.53;5101806;28;20117;-41
2021/01/09 01:07:51;;;;;;;18.93;10.53;;;1.20;79.70;;;1.54;68.11;97756.06;5102140;28;20054;-41
2021/01/09 01:10:19;;;;;;;17.37;9.87;;;1.20;79.90;;;1.56;68.95;97762.88;5101959;28;20036;-41
2021/01/09 01:12:46;;;;;;;17.53;10.00;;;1.20;80.00;;;1.58;68.68;97763.59;5101133;28;20048;-41
2021/01/09 01:15:14;;;;;;;16.40;9.70;;;1.20;79.60;;;1.62;69.01;97766.03;5101540;28;20230;-40
2021/01/09 01:17:47;;;;;;;17.37;10.07;;;1.30;79.60;;;1.66;68.92;97770.13;5117835;28;20048;-41
2021/01/09 01:20:15;;;;;;;16.05;10.13;;;1.30;79.50;;;1.65;68.42;97766.69;5102201;28;20225;-40
2021/01/09 01:22:44;;;;;;;19.03;10.57;;;1.30;79.60;;;1.63;68.93;97773.81;5102517;28;20052;-41
2021/01/09 01:25:13;;;;;;;17.30;9.97;;;1.20;79.60;;;1.63;69.01;97768.56;5101144;28;20078;-41
2021/01/09 01:27:41;;;;;;;18.63;10.37;;;1.30;79.80;;;1.64;68.88;97778.09;5102091;28;20044;-41
2021/01/09 01:30:09;;;;;;;19.23;10.17;;;1.30;79.90;;;1.67;68.53;97772.66;5102068;28;20040;-41
2021/01/09 01:32:36;;;;;;;16.80;9.17;;;1.30;79.60;;;1.66;68.89;97776.22;5102281;28;20048;-41
2021/01/09 01:35:05;;;;;;;18.10;9.83;;;1.40;79.60;;;1.66;68.74;97768.34;5105768;28;20078;-41
2021/01/09 01:37:33;;;;;;;19.07;10.73;;;1.40;79.80;;;1.67;68.37;97764.78;5105996;28;20044;-41
2021/01/09 01:40:05;;;;;;;18.03;10.37;;;1.30;79.60;;;1.59;68.39;97769.72;5101617;28;20050;-41
2021/01/09 01:42:33;;;;;;;18.10;10.83;;;1.20;79.70;;;1.57;68.73;97763.69;5105379;28;20044;-41
2021/01/09 01:45:02;;;;;;;18.97;10.80;;;1.20;79.80;;;1.53;68.44;97764.84;5099807;28;20066;-41
2021/01/09 01:47:30;;;;;;;23.50;12.03;;;1.10;80.10;;;1.54;68.64;97771.78;5105342;28;20031;-41
2021/01/09 01:49:57;;;;;;;17.70;9.70;;;1.10;80.30;;;1.51;69.02;97764.13;5105036;28;20032;-42
2021/01/09 01:52:25;;;;;;;22.47;12.37;;;1.10;80.30;;;1.55;69.42;97770.84;5104509;28;20048;-41
2021/01/09 01:54:52;;;;;;;21.63;11.57;;;1.20;80.30;;;1.54;69.28;97767.38;5104633;28;20048;-41
2021/01/09 01:57:20;;;;;;;21.27;11.60;;;1.10;80.40;;;1.53;69.12;97767.47;5105136;28;20040;-41
2021/01/09 01:59:48;;;;;;;24.17;12.37;;;1.10;80.50;;;1.51;68.72;97769.38;5094906;28;20056;-41
2021/01/09 02:02:15;;;;;;;20.73;12.23;;;1.10;80.70;;;1.52;68.79;97765.81;5085570;28;20070;-41
2021/01/09 02:04:50;;;;;;;18.47;10.13;;;1.10;80.70;;;1.54;69.31;97766.53;5105328;28;20058;-41
2021/01/09 02:07:23;;;;;;;20.33;11.67;;;1.20;80.60;;;1.54;68.81;97764.75;5104627;28;20058;-41
2021/01/09 02:09:52;;;;;;;22.33;12.33;;;1.10;80.30;;;1.54;68.38;97769.16;5104305;28;20235;-41
2021/01/09 02:12:31;;;;;;;19.87;10.27;;;1.10;80.50;;;1.49;69.31;97766.88;5104387;28;20048;-41
2021/01/09 02:15:01;;;;;;;19.33;11.80;;;1.10;80.60;;;1.49;68.43;97771.25;5103712;28;20048;-41
2021/01/09 02:17:29;;;;;;;20.70;11.23;;;1.10;80.90;;;1.45;69.08;97773.22;5103876;28;20044;-41
2021/01/09 02:20:01;;;;;;;23.23;11.67;;;1.00;80.90;;;1.42;69.10;97773.44;5105322;28;20050;-41
2021/01/09 02:22:42;;;;;;;18.90;11.07;;;1.00;81.20;;;1.38;68.29;97775.44;5104235;28;20050;-41
2021/01/09 02:25:11;;;;;;;21.80;12.53;;;0.90;81.60;;;1.40;68.87;97783.19;5103286;28;20398;-41
2021/01/09 02:27:40;;;;;;;18.17;11.00;;;0.90;81.40;;;1.39;68.90;97776.25;5105254;28;20054;-41
2021/01/09 02:30:15;;;;;;;22.23;12.40;;;0.90;81.40;;;1.40;68.58;97783.19;5104633;28;20047;-41
2021/01/09 02:33:09;;;;;;;24.63;12.70;;;0.90;81.60;;;1.40;68.35;97780.59;5104948;28;20062;-41
2021/01/09 02:35:39;;;;;;;27.63;11.20;;;1.00;81.80;;;1.38;68.69;97780.69;5101851;28;20043;-41
2021/01/09 02:38:07;;;;;;;22.40;12.10;;;1.00;81.60;;;1.36;69.42;97774.69;5104435;28;20048;-41
2021/01/09 02:40:41;;;;;;;21.43;12.37;;;0.90;81.70;;;1.38;69.21;97780.69;5104646;28;20063;-41
2021/01/09 02:43:13;;;;;;;21.93;12.07;;;1.00;81.60;;;1.42;69.48;97778.69;5103749;28;20044;-41
2021/01/09 02:45:41;;;;;;;22.73;12.93;;;1.00;81.60;;;1.44;68.88;97779.44;5103210;28;20048;-41
2021/01/09 02:48:09;;;;;;;19.80;11.67;;;1.00;81.40;;;1.43;68.77;97780.34;5104698;28;20052;-41
2021/01/09 02:50:36;;;;;;;25.03;12.20;;;1.00;81.40;;;1.39;69.40;97776.25;5104138;28;20050;-42
2021/01/09 02:53:03;;;;;;;22.53;12.23;;;0.90;81.60;;;1.41;69.04;97778.78;5104664;28;20048;-41
2021/01/09 02:55:31;;;;;;;20.63;12.17;;;1.00;81.60;;;1.42;69.32;97777.88;5103660;28;20107;-41
2021/01/09 02:57:58;;;;;;;25.07;12.37;;;1.00;81.70;;;1.43;69.14;97785.59;5104297;28;20059;-41
2021/01/09 03:00:26;;;;;;;24.60;12.70;;;1.00;81.60;;;1.45;69.62;97783.72;5103963;28;20056;-41
2021/01/09 03:02:53;;;;;;;19.50;11.87;;;1.10;81.50;;;1.47;69.14;97783.63;5104510;28;20055;-41
2021/01/09 03:05:21;;;;;;;22.17;11.93;;;1.10;82.10;;;1.46;69.37;97785.41;5102926;28;20054;-41
2021/01/09 03:07:48;;;;;;;23.23;12.70;;;1.00;81.20;;;1.47;69.13;97783.63;5104411;28;20058;-41
2021/01/09 03:10:15;;;;;;;20.70;11.67;;;1.10;81.40;;;1.46;69.23;97780.16;5104385;28;20040;-41
2021/01/09 03:12:43;;;;;;;23.53;12.43;;;1.10;81.40;;;1.49;69.42;97790.47;5104298;28;20054;-41
2021/01/09 03:15:11;;;;;;;23.67;12.13;;;1.10;81.40;;;1.48;69.17;97780.91;5103277;28;20070;-41
2021/01/09 03:17:39;;;;;;;22.20;12.77;;;1.10;81.30;;;1.46;68.92;97793.28;5103885;28;20048;-41
2021/01/09 03:20:07;;;;;;;22.30;13.13;;;1.00;81.50;;;1.45;68.60;97791.59;5104188;28;20040;-41
2021/01/09 03:22:35;;;;;;;20.37;11.87;;;1.00;81.80;;;1.46;68.75;97793.28;5104148;28;20048;-41
2021/01/09 03:25:03;;;;;;;25.90;12.20;;;1.00;81.60;;;1.41;69.00;97798.00;5104044;28;20063;-42
2021/01/09 03:27:30;;;;;;;24.43;12.73;;;1.00;81.60;;;1.35;69.02;97790.53;5104014;28;20055;-41
2021/01/09 03:29:58;;;;;;;20.03;12.23;;;0.90;82.10;;;1.32;68.94;97802.06;5103920;28;20044;-41
2021/01/09 03:32:25;;;;;;;21.70;11.70;;;0.90;82.20;;;1.35;68.92;97801.00;5103492;28;20047;-41
2021/01/09 03:34:52;;;;;;;23.30;11.20;;;0.90;82.20;;;1.34;69.14;97799.34;5119161;28;20052;-41
2021/01/09 03:37:20;;;;;;;23.40;12.00;;;0.90;82.10;;;1.36;69.02;97800.91;5103868;28;20044;-41
2021/01/09 03:39:47;;;;;;;23.37;13.13;;;0.90;82.30;;;1.37;69.14;97799.13;5103504;28;20054;-41
2021/01/09 03:42:14;;;;;;;27.20;13.43;;;1.00;82.00;;;1.34;69.26;97800.19;5103254;28;20240;-41
2021/01/09 03:44:42;;;;;;;20.90;12.20;;;0.90;82.10;;;1.33;69.84;97802.91;5103519;28;20344;-41
2021/01/09 03:47:09;;;;;;;21.40;12.87;;;0.90;82.30;;;1.34;68.77;97797.56;5103632;28;20241;-41
2021/01/09 03:49:36;;;;;;;26.43;13.07;;;0.90;82.30;;;1.38;69.17;97806.06;5103353;28;20058;-41
2021/01/09 03:52:04;;;;;;;23.77;14.07;;;0.90;82.30;;;1.37;69.42;97799.97;5103035;28;20048;-42
2021/01/09 03:54:31;;;;;;;24.30;12.07;;;0.90;82.10;;;1.35;69.70;97795.78;5103576;28;20054;-41
2021/01/09 03:56:58;;;;;;;23.70;12.70;;;0.90;82.50;;;1.36;69.27;97793.06;5101373;28;20255;-41
2021/01/09 03:59:26;;;;;;;28.07;12.70;;;1.00;82.40;;;1.39;69.06;97802.50;5103485;28;20032;-41
2021/01/09 04:01:53;;;;;;;25.37;13.60;;;1.00;82.10;;;1.42;69.08;97799.69;5102307;28;20048;-41
2021/01/09 04:04:21;;;;;;;25.63;13.83;;;1.10;82.20;;;1.41;70.02;97803.22;5103179;28;20235;-41
2021/01/09 04:06:48;;;;;;;26.97;13.23;;;1.00;81.90;;;1.42;69.12;97802.31;5102468;28;20052;-41
2021/01/09 04:09:16;;;;;;;26.60;13.37;;;1.00;81.90;;;1.39;69.42;97807.75;5103253;28;20051;-41
2021/01/09 04:11:43;;;;;;;22.73;13.20;;;1.00;82.20;;;1.40;69.38;97808.56;5103039;28;20040;-41
2021/01/09 04:14:11;;;;;;;21.57;12.30;;;1.00;82.10;;;1.42;69.42;97806.72;5103146;28;20054;-41
2021/01/09 04:16:38;;;;;;;26.43;13.60;;;1.00;82.20;;;1.44;69.09;97804.84;5102582;28;20044;-41
2021/01/09 04:19:05;;;;;;;24.93;12.93;;;1.00;81.90;;;1.43;69.72;97800.53;5103321;28;20035;-41
2021/01/09 04:21:46;;;;;;;25.80;12.80;;;1.00;82.00;;;1.43;69.67;97806.59;5102966;28;20059;-41
2021/01/09 04:24:14;;;;;;;25.87;13.80;;;1.00;82.20;;;1.42;69.84;97804.94;5103140;28;20369;-41
2021/01/09 04:26:42;;;;;;;22.30;12.23;;;1.00;82.00;;;1.41;69.31;97810.28;5102428;28;20044;-41
2021/01/09 04:29:09;;;;;;;24.97;12.47;;;1.00;82.20;;;1.34;69.73;97810.69;5102803;28;20047;-41
2021/01/09 04:31:36;;;;;;;24.73;12.57;;;0.80;82.50;;;1.32;69.66;97806.47;5102178;28;20243;-41
2021/01/09 04:34:04;;;;;;;24.33;12.27;;;0.80;82.90;;;1.32;69.81;97809.94;5102371;28;20090;-41
2021/01/09 04:36:31;;;;;;;22.80;13.30;;;0.80;82.70;;;1.32;69.48;97806.47;5102616;28;20054;-41
2021/01/09 04:39:00;;;;;;;26.10;13.00;;;0.80;82.60;;;1.32;69.18;97807.31;5101836;28;20044;-41
2021/01/09 04:41:28;;;;;;;24.90;12.60;;;0.90;83.00;;;1.33;69.84;97801.09;5102550;28;20059;-41
2021/01/09 04:43:55;;;;;;;21.07;12.57;;;0.90;82.80;;;1.36;69.70;97806.16;5101531;28;20052;-41
2021/01/09 04:46:25;;;;;;;23.73;12.10;;;0.90;82.90;;;1.38;69.93;97811.31;5102163;28;20225;-41
2021/01/09 04:48:53;;;;;;;25.07;12.87;;;1.00;82.80;;;1.38;69.47;97814.78;5101275;28;20052;-41
2021/01/09 04:51:22;;;;;;;25.80;13.73;;;1.10;82.80;;;1.42;69.54;97814.59;5102396;28;20040;-41
2021/01/09 04:53:51;;;;;;;22.80;12.03;;;1.10;82.70;;;1.45;69.67;97812.59;5102593;28;20044;-41
2021/01/09 04:56:19;;;;;;;23.50;11.97;;;1.10;82.50;;;1.47;70.06;97809.88;5100920;28;20051;-41
2021/01/09 04:58:46;;;;;;;25.33;13.60;;;1.10;82.00;;;1.42;69.29;97811.97;5102384;28;20044;-41
2021/01/09 05:01:14;;;;;;;24.37;12.17;;;1.00;82.60;;;1.40;69.51;97819.94;5102314;28;20050;-41
2021/01/09 05:03:48;;;;;;;23.30;13.00;;;1.00;82.70;;;1.41;69.46;97828.63;5102250;28;20260;-41
2021/01/09 05:06:21;;;;;;;25.05;14.15;;;1.00;82.90;;;1.39;70.07;97815.63;5101565;28;20058;-42
2021/01/09 05:08:48;;;;;;;28.47;14.17;;;1.00;83.00;;;1.38;70.08;97817.41;5101474;28;20052;-41
2021/01/09 05:11:20;;;;;;;23.33;13.00;;;0.90;83.20;;;1.34;70.14;97821.16;5102127;28;20071;-41
2021/01/09 05:13:48;;;;;;;24.13;12.67;;;0.90;83.70;;;1.36;70.44;97821.91;5102124;28;20048;-41
2021/01/09 05:16:16;;;;;;;23.70;14.33;;;1.00;83.10;;;1.38;70.29;97822.66;5101670;28;20259;-41
2021/01/09 05:18:43;;;;;;;25.30;13.50;;;1.00;82.90;;;1.38;70.38;97825.28;5102126;28;20198;-41
2021/01/09 05:21:12;;;;;;;29.87;13.90;;;1.00;83.10;;;1.26;69.97;97828.69;5101584;28;20389;-41
2021/01/09 05:23:51;;;;;;;28.37;14.37;;;0.80;83.10;;;1.25;70.33;97824.38;5101139;28;20058;-41
2021/01/09 05:26:23;;;;;;;25.13;13.73;;;0.80;83.60;;;1.28;69.85;97826.81;5100551;28;20058;-41
2021/01/09 05:28:56;;;;;;;25.10;13.67;;;0.90;83.90;;;1.31;69.75;97826.59;5102064;28;20252;-41
2021/01/09 05:31:25;;;;;;;23.87;12.57;;;0.90;83.40;;;1.31;70.12;97823.97;5115929;22;20066;-41
2021/01/09 05:33:54;;;;;;;28.77;14.20;;;0.90;83.30;;;1.31;70.42;97834.47;5084195;28;20230;-41
2021/01/09 05:36:22;;;;;;;24.63;14.47;;;0.90;83.30;;;1.30;70.47;97827.56;5099891;28;20221;-41
2021/01/09 05:38:51;;;;;;;24.27;12.43;;;1.00;83.20;;;1.28;70.30;97829.44;5101198;28;20044;-41
2021/01/09 05:41:24;;;;;;;28.07;13.57;;;0.90;83.30;;;1.32;70.33;97832.72;5101957;28;20048;-41
2021/01/09 05:43:59;;;;;;;23.37;13.33;;;0.90;83.50;;;1.33;69.94;97832.59;5101281;28;20056;-41
2021/01/09 05:46:30;;;;;;;28.77;14.00;;;1.00;83.60;;;1.32;70.23;97837.97;5101514;28;20351;-41
2021/01/09 05:48:58;;;;;;;25.67;13.33;;;0.90;83.20;;;1.26;70.27;97830.47;5101825;28;20043;-41
2021/01/09 05:51:41;;;;;;;30.73;13.77;;;0.90;83.60;;;1.24;70.72;97835.81;5083772;28;20243;-41
2021/01/09 05:54:08;;;;;;;24.63;13.37;;;0.80;83.80;;;1.24;70.80;97837.59;5101776;28;20060;-41
2021/01/09 05:56:42;;;;;;;28.43;15.40;;;0.80;83.70;;;1.27;70.32;97834.78;5101389;28;20050;-41
2021/01/09 05:59:10;;;;;;;26.55;13.30;;;0.90;83.50;;;1.28;69.94;97844.31;5101782;28;20044;-41
2021/01/09 06:01:41;;;;;;;26.73;13.67;;;0.90;83.60;;;1.30;69.87;97835.44;5098836;28;20358;-42
2021/01/09 06:04:22;;;;;;;26.27;14.00;;;0.90;83.60;;;1.33;70.29;97837.00;5084189;28;20051;-41
2021/01/09 06:07:09;;;;;;;26.17;13.37;;;1.00;83.60;;;1.37;70.11;97838.47;5083316;28;20056;-42
2021/01/09 06:09:52;;;;;;;29.53;16.00;;;1.00;83.60;;;1.38;69.96;97842.81;5086051;28;20568;-41
2021/01/09 06:12:22;;;;;;;27.77;15.07;;;1.00;83.30;;;1.39;70.04;97836.59;5083753;28;20351;-41
2021/01/09 06:14:52;;;;;;;30.23;14.80;;;1.00;83.50;;;1.42;69.85;97840.84;5101235;28;20044;-41
2021/01/09 06:17:22;;;;;;;25.87;14.70;;;1.00;83.10;;;1.41;70.04;97829.47;5082852;28;20352;-41
2021/01/09 06:19:50;;;;;;;29.33;14.17;;;1.00;83.20;;;1.41;70.25;97842.59;5083813;28;20048;-41
2021/01/09 06:22:17;;;;;;;26.90;13.60;;;1.10;83.10;;;1.40;69.62;97840.91;5070604;28;20048;-41
2021/01/09 06:24:45;;;;;;;27.10;16.40;;;1.10;83.20;;;1.36;70.49;97848.16;5086977;28;20047;-49
2021/01/09 06:27:27;;;;;;;31.37;20.17;;;1.00;83.20;;;1.33;69.97;97847.50;5086728;28;20052;-42
2021/01/09 06:30:09;;;;;;;34.57;18.60;;;0.90;83.60;;;1.27;70.65;97853.13;5088320;28;20179;-41
2021/01/09 06:32:39;;;;;;;30.70;15.67;;;0.80;83.80;;;1.25;69.66;97858.47;5087055;28;20040;-41
2021/01/09 06:35:09;;;;;;;36.07;17.87;;;0.80;83.70;;;1.24;70.25;97864.69;5087291;28;20044;-41
2021/01/09 06:37:39;;;;;;;30.67;16.07;;;0.80;83.80;;;1.20;70.51;97859.72;5087056;28;20082;-41
2021/01/09 06:40:08;;;;;;;31.97;17.80;;;0.80;84.00;;;1.15;70.47;97868.72;5104852;28;20051;-41
2021/01/09 06:42:38;;;;;;;32.10;16.33;;;0.70;84.60;;;1.14;70.21;97871.41;5087111;28;20048;-41
2021/01/09 06:45:07;;;;;;;32.30;17.40;;;0.70;84.70;;;1.12;70.82;97868.88;5086664;28;20052;-41
2021/01/09 06:47:35;;;;;;;28.57;14.73;;;0.70;84.80;;;1.14;70.94;97874.03;5104814;28;20047;-42
2021/01/09 06:50:18;;;;;;;26.37;15.43;;;0.80;84.60;;;1.13;70.43;97873.22;5104749;28;20039;-41
2021/01/09 06:53:14;;;;;;;29.60;15.03;;;0.80;84.60;;;1.08;70.86;97870.03;5104513;28;20040;-41
2021/01/09 06:55:42;;;;;;;30.73;16.97;;;0.70;84.80;;;1.11;70.63;97869.00;5103384;28;20324;-41
2021/01/09 06:58:13;;;;;;;31.33;15.23;;;0.80;84.60;;;1.13;70.64;97869.75;5104198;28;20048;-41
2021/01/09 07:00:41;;;;;;;43.63;22.90;;;0.80;84.40;;;1.13;71.25;97867.13;5087316;28;20048;-41
2021/01/09 07:03:21;;;;;;;33.23;18.10;;;0.80;84.50;;;1.16;71.16;97872.16;5101799;28;20048;-41
2021/01/09 07:05:51;;;;;;;33.33;16.60;;;0.80;84.20;;;1.21;70.19;97869.28;5104092;28;20336;-41
2021/01/09 07:08:30;;;;;;;29.10;15.30;;;0.90;84.10;;;1.22;71.14;97877.03;5104427;28;20052;-41
2021/01/09 07:11:00;;;;;;;30.77;15.83;;;0.90;83.90;;;1.28;70.93;97883.66;5104197;28;20363;-41
2021/01/09 07:13:28;;;;;;;31.53;14.60;;;1.00;83.60;;;1.30;70.86;97881.78;5104387;28;20050;-41
2021/01/09 07:16:14;;;;;;;30.00;14.17;;;1.00;83.40;;;1.31;70.19;97886.94;5103790;28;20046;-42
2021/01/09 07:18:49;;;;;;;27.80;15.20;;;1.10;83.70;;;1.35;70.67;97884.97;5102136;28;20056;-41
2021/01/09 07:21:21;;;;;;;31.20;14.30;;;1.10;83.20;;;1.34;71.14;97888.53;5102425;28;20055;-41
2021/01/09 07:23:53;;;;;;;27.07;13.40;;;1.10;83.20;;;1.32;70.80;97886.00;5096778;28;20090;-42
2021/01/09 07:26:20;;;;;;;29.90;15.23;;;1.00;83.10;;;1.29;70.43;97883.56;5085814;28;20056;-41
2021/01/09 07:28:48;;;;;;;29.97;14.17;;;1.00;83.10;;;1.30;70.40;97889.66;5104012;28;20048;-41
2021/01/09 07:31:15;;;;;;;30.73;14.77;;;1.00;83.30;;;1.32;70.48;97888.63;5103577;28;20050;-41
2021/01/09 07:33:46;;;;;;;28.90;14.43;;;1.00;83.10;;;1.33;70.55;97887.69;5103062;28;20044;-41
2021/01/09 07:36:16;;;;;;;30.60;14.20;;;1.00;83.10;;;1.31;70.61;97899.22;5103414;28;20048;-41
2021/01/09 07:38:46;;;;;;;30.53;14.57;;;1.00;83.20;;;1.31;70.79;97893.97;5103646;28;20078;-41
2021/01/09 07:41:38;;;;;;;32.93;16.70;;;1.00;83.10;;;1.33;70.97;97892.09;5085979;28;20048;-41
2021/01/09 07:44:20;;;;;;;30.13;15.37;;;1.00;83.40;;;1.32;70.19;97893.88;5103085;28;20044;-41
2021/01/09 07:46:56;;;;;;;27.80;15.57;;;1.00;83.30;;;1.37;70.67;97893.56;5084758;28;20058;-42
2021/01/09 07:49:28;;;;;;;30.20;15.23;;;1.00;82.90;;;1.38;70.88;97906.59;5102545;28;20044;-41
2021/01/09 07:52:02;;;;;;;30.77;15.63;;;1.10;83.00;;;1.40;70.26;97908.28;5085846;28;20066;-41
2021/01/09 07:54:40;;;;;;;25.57;14.30;;;1.10;82.90;;;1.42;70.31;97895.94;5068243;28;20048;-42
2021/01/09 07:57:19;;;;;;;22.63;13.00;;;1.10;82.60;;;1.41;70.46;97905.56;5086070;28;20058;-42
2021/01/09 07:59:59;;;;;;;29.67;15.63;;;1.10;82.60;;;1.40;70.47;97905.66;5103342;28;20048;-41
2021/01/09 08:02:34;;;;;;;25.17;13.33;;;1.10;82.60;;;1.39;70.87;97917.94;5101094;28;20051;-41
2021/01/09 08:05:13;;;;;;;27.50;13.97;;;1.10;82.50;;;1.41;70.56;97916.03;5082334;28;20048;-41
2021/01/09 08:07:45;;;;;;;27.20;14.40;;;1.20;82.30;;;1.44;70.55;97917.66;5082926;28;20053;-42
2021/01/09 08:10:16;;;;;;;26.23;13.17;;;1.20;82.10;;;1.46;70.57;97926.28;5092054;28;20248;-41
2021/01/09 08:12:46;;;;;;;27.40;13.90;;;1.20;82.00;;;1.45;70.60;97928.03;5103154;28;20044;-41
2021/01/09 08:15:14;;;;;;;27.97;13.50;;;1.20;81.90;;;1.47;70.13;97936.66;5102349;28;20040;-41
2021/01/09 08:17:41;;;;;;;25.90;13.37;;;1.20;81.70;;;1.49;70.13;97936.56;5102468;28;20066;-41
2021/01/09 08:20:11;;;;;;;27.30;14.03;;;1.30;81.90;;;1.50;70.02;97940.88;5101741;28;20040;-41
2021/01/09 08:22:49;;;;;;;29.53;15.17;;;1.30;81.40;;;1.52;70.16;97942.47;5101782;28;20062;-42
2021/01/09 08:25:17;;;;;;;26.07;13.90;;;1.30;81.60;;;1.48;70.14;97938.34;5102293;28;20048;-41
2021/01/09 08:27:50;;;;;;;25.47;13.80;;;1.40;81.20;;;1.51;70.53;97945.16;5102258;28;20344;-41
2021/01/09 08:30:22;;;;;;;25.17;13.90;;;1.40;81.20;;;1.55;70.78;97939.66;5084291;28;20081;-42
2021/01/09 08:33:08;;;;;;;28.90;15.63;;;1.40;81.20;;;1.59;70.88;97948.16;5102600;28;20044;-41
2021/01/09 08:35:45;;;;;;;29.23;13.80;;;1.40;80.80;;;1.57;70.02;97948.25;5102031;28;20055;-41
2021/01/09 08:38:14;;;;;;;27.60;14.70;;;1.50;81.00;;;1.57;69.91;97957.91;5099915;28;20060;-41
2021/01/09 08:40:44;;;;;;;23.13;13.23;;;1.50;80.80;;;1.56;70.12;97957.06;5102526;28;20048;-41
2021/01/09 08:43:13;;;;;;;18.97;10.60;;;1.50;80.70;;;1.51;69.20;97959.16;5084057;28;20052;-41
2021/01/09 08:45:53;;;;;;;24.10;12.90;;;1.50;80.00;;;1.51;69.93;97955.66;5102087;28;20054;-41
2021/01/09 08:48:29;;;;;;;35.03;19.43;;;1.50;80.10;;;1.57;70.00;97955.28;5084714;28;20044;-42
2021/01/09 08:51:03;;;;;;;31.70;16.77;;;1.40;80.30;;;1.63;69.65;97961.91;5102366;28;20050;-41
2021/01/09 08:53:51;;;;;;;22.80;13.00;;;1.50;80.50;;;1.66;69.59;97965.19;5102260;28;20050;-41
2021/01/09 08:56:24;;;;;;;26.27;14.30;;;1.50;80.20;;;1.70;69.85;97965.84;5086288;28;20046;-41
2021/01/09 08:58:52;;;;;;;23.80;14.35;;;1.50;80.30;;;1.67;70.20;97969.50;5101370;28;20050;-41
2021/01/09 09:01:28;;;;;;;21.87;13.53;;;1.60;79.80;;;1.72;69.95;97970.03;5101071;28;20259;-41
2021/01/09 09:04:00;;;;;;;22.00;13.27;;;1.60;79.80;;;1.74;69.79;97965.53;5101844;28;20050;-41
2021/01/09 09:06:35;;;;;;;25.60;14.07;;;1.60;79.50;;;1.81;69.78;97973.03;5084381;28;20051;-41
2021/01/09 09:09:05;;;;;;;17.90;10.33;;;1.60;79.60;;;1.84;69.81;97971.06;5084879;28;20044;-41
2021/01/09 09:11:34;;;;;;;24.53;12.77;;;1.60;79.30;;;1.87;70.08;97973.47;5097433;28;20066;-41
2021/01/09 09:14:09;;;;;;;29.90;15.47;;;1.60;79.30;;;1.91;69.57;97966.25;5084729;28;20044;-41
2021/01/09 09:16:39;;;;;;;26.30;14.10;;;1.70;79.40;;;1.93;70.08;97967.00;5100441;28;20036;-41
2021/01/09 09:19:19;;;;;;;26.10;14.07;;;1.70;79.20;;;1.91;69.57;97967.09;5091033;28;20047;-40
2021/01/09 09:21:55;;;;;;;30.33;14.90;;;1.70;79.20;;;1.90;69.31;97978.56;5084834;28;20251;-41
2021/01/09 09:24:45;;;;;;;22.60;14.30;;;1.70;79.20;;;1.94;69.70;97984.44;5086289;28;20040;-41
2021/01/09 09:27:28;;;;;;;27.03;14.80;;;1.70;79.10;;;1.96;69.80;97987.81;5083156;28;20353;-41
2021/01/09 09:30:11;;;;;;;24.43;13.87;;;1.70;79.50;;;1.99;69.19;97986.75;5100143;28;20059;-41
2021/01/09 09:32:45;;;;;;;29.40;15.07;;;1.70;79.20;;;1.98;69.36;97991.19;5096736;28;20052;-42
2021/01/09 09:35:27;;;;;;;25.23;14.50;;;1.80;79.40;;;2.01;70.01;97984.88;5105346;28;20043;-43
2021/01/09 09:37:59;;;;;;;26.13;15.60;;;1.80;79.00;;;2.04;69.93;97990.78;5101548;28;20044;-41
2021/01/09 09:40:32;;;;;;;27.23;14.47;;;1.80;79.30;;;2.08;69.87;97997.53;5101119;28;20051;-49
2021/01/09 09:43:15;;;;;;;25.40;14.10;;;1.90;79.00;;;2.13;69.18;98000.69;5096877;28;20361;-45
2021/01/09 09:46:04;;;;;;;29.70;16.40;;;1.90;78.60;;;2.16;69.62;97995.22;5100391;28;20286;-49
2021/01/09 09:48:39;;;;;;;23.73;13.70;;;1.90;78.70;;;2.20;69.22;98001.13;5101286;28;20048;-46
2021/01/09 09:51:09;;;;;;;20.20;11.47;;;1.90;78.60;;;2.20;69.24;98001.13;5100281;28;20080;-47
2021/01/09 09:53:40;;;;;;;24.17;13.13;;;2.00;78.50;;;2.21;69.17;98008.09;5100131;28;20050;-47
2021/01/09 09:56:23;;;;;;;23.83;13.13;;;2.00;78.50;;;2.22;69.22;98004.50;5104670;28;20050;-46
2021/01/09 09:59:04;;;;;;;30.50;15.77;;;2.00;77.90;;;2.26;68.97;98007.78;5104588;28;20058;-46
2021/01/09 10:01:33;;;;;;;25.13;14.63;;;2.10;78.10;;;2.26;68.94;98008.59;5103969;28;20050;-45
2021/01/09 10:04:05;;;;;;;30.30;16.07;;;2.00;78.30;;;2.21;68.81;98000.19;5103844;28;20051;-49
2021/01/09 10:06:36;;;;;;;35.07;18.33;;;2.10;78.20;;;2.21;68.75;98004.59;5103572;28;20054;-45
2021/01/09 10:09:18;;;;;;;27.83;16.03;;;2.00;77.60;;;2.23;69.11;98000.06;5105009;28;20251;-46
2021/01/09 10:11:49;;;;;;;25.93;14.13;;;2.00;77.90;;;2.21;69.06;98002.81;5104823;28;20048;-45
2021/01/09 10:14:22;;;;;;;27.93;15.83;;;2.00;77.80;;;2.22;68.85;98001.03;5104967;28;20255;-45
2021/01/09 10:16:49;;;;;;;22.60;12.70;;;2.00;77.70;;;2.24;68.54;97999.16;5104254;28;20044;-46
2021/01/09 10:19:18;;;;;;;23.27;12.57;;;2.00;77.90;;;2.19;68.17;97996.84;5104084;28;20254;-46
2021/01/09 10:21:47;;;;;;;25.17;12.37;;;1.90;77.50;;;2.10;68.53;97987.75;5085719;28;20052;-45
2021/01/09 10:24:14;;;;;;;25.00;14.30;;;1.70;77.70;;;2.05;68.04;97996.88;5104081;28;20046;-45
2021/01/09 10:26:41;;;;;;;26.17;15.13;;;1.70;77.90;;;1.99;68.47;97995.47;5102130;28;20056;-47
2021/01/09 10:29:16;;;;;;;21.57;12.73;;;1.60;78.20;;;1.93;68.15;97999.34;5104982;28;20048;-45
2021/01/09 10:31:43;;;;;;;25.93;13.87;;;1.50;78.10;;;1.88;68.09;97990.94;5085872;28;20054;-46
2021/01/09 10:34:11;;;;;;;30.40;16.77;;;1.40;78.70;;;1.87;68.35;98004.16;5103977;28;20040;-45
2021/01/09 10:36:39;;;;;;;27.47;14.70;;;1.40;79.10;;;1.87;68.35;97998.91;5103005;28;20052;-47